sensor_id;sensor_type;location;lat;lon;timestamp;temperature;humidity
1592;DHT22;789;51.612;7.510;2023-03-16T00:01:07;4.80;1.00
1592;DHT22;789;51.612;7.510;2023-03-16T00:03:34;4.70;1.00
1592;DHT22;789;51.612;7.510;2023-03-16T00:06:00;4.70;1.00
1592;DHT22;789;51.612;7.510;2023-03-16T00:08:27;4.60;1.00
1592;DHT22;789;51.612;7.510;2023-03-16T00:10:54;4.60;1.00
1592;DHT22;789;51.612;7.510;2023-03-16T00:13:22;4.50;1.00
1592;DHT22;789;51.612;7.510;2023-03-16T00:15:50;4.50;1.00
1592;DHT22;789;51.612;7.510;2023-03-16T00:18:20;4.50;1.00
1592;DHT22;789;51.612;7.510;2023-03-16T00:20:49;4.50;1.00
1592;DHT22;789;51.612;7.510;2023-03-16T00:23:17;4.50;1.00
1592;DHT22;789;51.612;7.510;2023-03-16T00:25:44;4.50;1.00
1592;DHT22;789;51.612;7.510;2023-03-16T00:28:10;4.50;1.00
1592;DHT22;789;51.612;7.510;2023-03-16T00:30:38;4.50;1.00
1592;DHT22;789;51.612;7.510;2023-03-16T00:33:04;4.50;1.00
1592;DHT22;789;51.612;7.510;2023-03-16T00:35:32;4.40;1.00
1592;DHT22;789;51.612;7.510;2023-03-16T00:37:59;4.40;1.00
1592;DHT22;789;51.612;7.510;2023-03-16T00:40:26;4.40;1.00
1592;DHT22;789;51.612;7.510;2023-03-16T00:42:53;4.40;1.00
1592;DHT22;789;51.612;7.510;2023-03-16T00:45:20;4.40;1.00
1592;DHT22;789;51.612;7.510;2023-03-16T00:47:48;4.40;1.00
1592;DHT22;789;51.612;7.510;2023-03-16T00:50:15;4.40;1.00
1592;DHT22;789;51.612;7.510;2023-03-16T00:52:43;4.40;1.00
1592;DHT22;789;51.612;7.510;2023-03-16T00:55:10;4.40;1.00
1592;DHT22;789;51.612;7.510;2023-03-16T00:57:38;4.40;1.00
1592;DHT22;789;51.612;7.510;2023-03-16T01:00:05;4.40;1.00
1592;DHT22;789;51.612;7.510;2023-03-16T01:02:37;4.30;1.00
1592;DHT22;789;51.612;7.510;2023-03-16T01:05:04;4.30;1.00
1592;DHT22;789;51.612;7.510;2023-03-16T01:07:31;4.30;1.00
1592;DHT22;789;51.612;7.510;2023-03-16T01:10:02;4.30;1.00
1592;DHT22;789;51.612;7.510;2023-03-16T01:12:29;4.30;1.00
1592;DHT22;789;51.612;7.510;2023-03-16T01:14:56;4.30;1.00
1592;DHT22;789;51.612;7.510;2023-03-16T01:17:23;4.30;1.00
1592;DHT22;789;51.612;7.510;2023-03-16T01:19:49;4.30;1.00
1592;DHT22;789;51.612;7.510;2023-03-16T01:22:17;4.40;1.00
1592;DHT22;789;51.612;7.510;2023-03-16T01:24:44;4.30;1.00
1592;DHT22;789;51.612;7.510;2023-03-16T01:27:13;4.30;1.00
1592;DHT22;789;51.612;7.510;2023-03-16T01:29:40;4.30;1.00
1592;DHT22;789;51.612;7.510;2023-03-16T01:32:09;4.30;1.00
1592;DHT22;789;51.612;7.510;2023-03-16T01:34:36;4.30;1.00
1592;DHT22;789;51.612;7.510;2023-03-16T01:37:03;4.30;1.00
1592;DHT22;789;51.612;7.510;2023-03-16T01:39:30;4.30;1.00
1592;DHT22;789;51.612;7.510;2023-03-16T01:41:56;4.20;1.00
1592;DHT22;789;51.612;7.510;2023-03-16T01:44:25;4.20;1.00
1592;DHT22;789;51.612;7.510;2023-03-16T01:46:54;4.10;1.00
1592;DHT22;789;51.612;7.510;2023-03-16T01:49:23;4.10;1.00
1592;DHT22;789;51.612;7.510;2023-03-16T01:51:54;4.10;1.00
1592;DHT22;789;51.612;7.510;2023-03-16T01:54:25;4.10;1.00
1592;DHT22;789;51.612;7.510;2023-03-16T01:57:00;4.10;1.00
1592;DHT22;789;51.612;7.510;2023-03-16T01:59:33;4.10;1.00
1592;DHT22;789;51.612;7.510;2023-03-16T02:02:01;4.20;1.00
1592;DHT22;789;51.612;7.510;2023-03-16T02:04:35;4.20;1.00
1592;DHT22;789;51.612;7.510;2023-03-16T02:07:06;4.20;1.00
1592;DHT22;789;51.612;7.510;2023-03-16T02:09:34;4.20;1.00
1592;DHT22;789;51.612;7.510;2023-03-16T02:12:03;4.20;1.00
1592;DHT22;789;51.612;7.510;2023-03-16T02:14:32;4.20;1.00
1592;DHT22;789;51.612;7.510;2023-03-16T02:16:58;4.30;1.00
1592;DHT22;789;51.612;7.510;2023-03-16T02:19:35;4.30;1.00
1592;DHT22;789;51.612;7.510;2023-03-16T02:22:07;4.40;1.00
1592;DHT22;789;51.612;7.510;2023-03-16T02:24:35;4.40;1.00
1592;DHT22;789;51.612;7.510;2023-03-16T02:27:04;4.40;1.00
1592;DHT22;789;51.612;7.510;2023-03-16T02:29:55;4.40;1.00
1592;DHT22;789;51.612;7.510;2023-03-16T02:32:25;4.40;1.00
1592;DHT22;789;51.612;7.510;2023-03-16T02:34:52;4.40;1.00
1592;DHT22;789;51.612;7.510;2023-03-16T02:37:20;4.50;1.00
1592;DHT22;789;51.612;7.510;2023-03-16T02:39:47;4.50;1.00
1592;DHT22;789;51.612;7.510;2023-03-16T02:42:17;4.50;1.00
1592;DHT22;789;51.612;7.510;2023-03-16T02:44:49;4.60;1.00
1592;DHT22;789;51.612;7.510;2023-03-16T02:47:23;4.60;1.00
1592;DHT22;789;51.612;7.510;2023-03-16T02:49:52;4.60;1.00
1592;DHT22;789;51.612;7.510;2023-03-16T02:52:19;4.60;1.00
1592;DHT22;789;51.612;7.510;2023-03-16T02:54:46;4.60;1.00
1592;DHT22;789;51.612;7.510;2023-03-16T02:57:13;4.50;1.00
1592;DHT22;789;51.612;7.510;2023-03-16T02:59:40;4.50;1.00
1592;DHT22;789;51.612;7.510;2023-03-16T03:02:08;4.50;1.00
1592;DHT22;789;51.612;7.510;2023-03-16T03:04:35;4.50;1.00
1592;DHT22;789;51.612;7.510;2023-03-16T03:07:02;4.50;1.00
1592;DHT22;789;51.612;7.510;2023-03-16T03:09:30;4.50;1.00
1592;DHT22;789;51.612;7.510;2023-03-16T03:11:58;4.50;1.00
1592;DHT22;789;51.612;7.510;2023-03-16T03:14:24;4.50;1.00
1592;DHT22;789;51.612;7.510;2023-03-16T03:16:53;4.50;1.00
1592;DHT22;789;51.612;7.510;2023-03-16T03:19:21;4.50;1.00
1592;DHT22;789;51.612;7.510;2023-03-16T03:21:49;4.50;1.00
1592;DHT22;789;51.612;7.510;2023-03-16T03:24:16;4.50;1.00
1592;DHT22;789;51.612;7.510;2023-03-16T03:26:43;4.50;1.00
1592;DHT22;789;51.612;7.510;2023-03-16T03:29:10;4.50;1.00
1592;DHT22;789;51.612;7.510;2023-03-16T03:31:38;4.60;1.00
1592;DHT22;789;51.612;7.510;2023-03-16T03:34:04;4.60;1.00
1592;DHT22;789;51.612;7.510;2023-03-16T03:36:33;4.70;1.00
1592;DHT22;789;51.612;7.510;2023-03-16T03:39:00;4.60;1.00
1592;DHT22;789;51.612;7.510;2023-03-16T03:41:29;4.70;1.00
1592;DHT22;789;51.612;7.510;2023-03-16T03:43:57;4.70;1.00
1592;DHT22;789;51.612;7.510;2023-03-16T03:46:24;4.70;1.00
1592;DHT22;789;51.612;7.510;2023-03-16T03:48:50;4.70;1.00
1592;DHT22;789;51.612;7.510;2023-03-16T03:51:17;4.70;1.00
1592;DHT22;789;51.612;7.510;2023-03-16T03:53:45;4.70;1.00
1592;DHT22;789;51.612;7.510;2023-03-16T03:56:12;4.70;1.00
1592;DHT22;789;51.612;7.510;2023-03-16T03:58:39;4.70;1.00
1592;DHT22;789;51.612;7.510;2023-03-16T04:01:06;4.70;1.00
1592;DHT22;789;51.612;7.510;2023-03-16T04:03:32;4.70;1.00
1592;DHT22;789;51.612;7.510;2023-03-16T04:05:59;4.70;1.00
1592;DHT22;789;51.612;7.510;2023-03-16T04:08:26;4.70;1.00
1592;DHT22;789;51.612;7.510;2023-03-16T04:10:54;4.70;1.00
1592;DHT22;789;51.612;7.510;2023-03-16T04:13:20;4.70;1.00
1592;DHT22;789;51.612;7.510;2023-03-16T04:15:47;4.70;1.00
1592;DHT22;789;51.612;7.510;2023-03-16T04:18:14;4.70;1.00
1592;DHT22;789;51.612;7.510;2023-03-16T04:20:40;4.70;1.00
1592;DHT22;789;51.612;7.510;2023-03-16T04:23:09;4.70;1.00
1592;DHT22;789;51.612;7.510;2023-03-16T04:25:36;4.80;1.00
1592;DHT22;789;51.612;7.510;2023-03-16T04:28:05;4.80;1.00
1592;DHT22;789;51.612;7.510;2023-03-16T04:30:31;4.80;1.00
1592;DHT22;789;51.612;7.510;2023-03-16T04:32:59;4.80;1.00
1592;DHT22;789;51.612;7.510;2023-03-16T04:35:26;4.60;1.00
1592;DHT22;789;51.612;7.510;2023-03-16T04:37:53;4.80;1.00
1592;DHT22;789;51.612;7.510;2023-03-16T04:40:20;4.80;1.00
1592;DHT22;789;51.612;7.510;2023-03-16T04:42:47;4.90;1.00
1592;DHT22;789;51.612;7.510;2023-03-16T04:45:16;4.90;1.00
1592;DHT22;789;51.612;7.510;2023-03-16T04:47:43;4.80;1.00
1592;DHT22;789;51.612;7.510;2023-03-16T04:50:11;4.80;1.00
1592;DHT22;789;51.612;7.510;2023-03-16T04:52:38;4.80;1.00
1592;DHT22;789;51.612;7.510;2023-03-16T04:55:05;4.80;1.00
1592;DHT22;789;51.612;7.510;2023-03-16T04:57:32;4.80;1.00
1592;DHT22;789;51.612;7.510;2023-03-16T04:59:59;4.90;1.00
1592;DHT22;789;51.612;7.510;2023-03-16T05:02:27;4.90;1.00
1592;DHT22;789;51.612;7.510;2023-03-16T05:04:54;4.90;1.00
1592;DHT22;789;51.612;7.510;2023-03-16T05:07:21;4.90;1.00
1592;DHT22;789;51.612;7.510;2023-03-16T05:09:50;4.90;1.00
1592;DHT22;789;51.612;7.510;2023-03-16T05:12:17;4.90;1.00
1592;DHT22;789;51.612;7.510;2023-03-16T05:14:44;4.90;1.00
1592;DHT22;789;51.612;7.510;2023-03-16T05:17:11;4.90;1.00
1592;DHT22;789;51.612;7.510;2023-03-16T05:19:40;4.90;1.00
1592;DHT22;789;51.612;7.510;2023-03-16T05:22:07;4.90;1.00
1592;DHT22;789;51.612;7.510;2023-03-16T05:24:34;4.90;1.00
1592;DHT22;789;51.612;7.510;2023-03-16T05:27:01;4.90;1.00
1592;DHT22;789;51.612;7.510;2023-03-16T05:29:28;4.90;1.00
1592;DHT22;789;51.612;7.510;2023-03-16T05:31:56;5.00;1.00
1592;DHT22;789;51.612;7.510;2023-03-16T05:34:24;5.00;1.00
1592;DHT22;789;51.612;7.510;2023-03-16T05:36:52;5.00;1.00
1592;DHT22;789;51.612;7.510;2023-03-16T05:39:19;5.10;1.00
1592;DHT22;789;51.612;7.510;2023-03-16T05:41:47;5.10;1.00
1592;DHT22;789;51.612;7.510;2023-03-16T05:44:14;5.10;1.00
1592;DHT22;789;51.612;7.510;2023-03-16T05:46:41;5.10;1.00
1592;DHT22;789;51.612;7.510;2023-03-16T05:49:10;5.20;1.00
1592;DHT22;789;51.612;7.510;2023-03-16T05:51:37;5.20;1.00
1592;DHT22;789;51.612;7.510;2023-03-16T05:54:06;5.20;1.00
1592;DHT22;789;51.612;7.510;2023-03-16T05:56:32;5.30;1.00
1592;DHT22;789;51.612;7.510;2023-03-16T05:58:59;5.30;1.00
1592;DHT22;789;51.612;7.510;2023-03-16T06:01:27;5.30;1.00
1592;DHT22;789;51.612;7.510;2023-03-16T06:03:53;5.30;1.00
1592;DHT22;789;51.612;7.510;2023-03-16T06:06:21;5.30;1.00
1592;DHT22;789;51.612;7.510;2023-03-16T06:08:48;5.30;1.00
1592;DHT22;789;51.612;7.510;2023-03-16T06:11:16;5.40;1.00
1592;DHT22;789;51.612;7.510;2023-03-16T06:13:43;5.40;1.00
1592;DHT22;789;51.612;7.510;2023-03-16T06:16:10;5.40;1.00
1592;DHT22;789;51.612;7.510;2023-03-16T06:18:38;5.50;1.00
1592;DHT22;789;51.612;7.510;2023-03-16T06:21:05;5.40;1.00
1592;DHT22;789;51.612;7.510;2023-03-16T06:23:32;5.40;1.00
1592;DHT22;789;51.612;7.510;2023-03-16T06:26:00;5.40;1.00
1592;DHT22;789;51.612;7.510;2023-03-16T06:28:28;5.40;1.00
1592;DHT22;789;51.612;7.510;2023-03-16T06:30:56;5.40;1.00
1592;DHT22;789;51.612;7.510;2023-03-16T06:33:23;5.50;1.00
1592;DHT22;789;51.612;7.510;2023-03-16T06:35:50;5.50;1.00
1592;DHT22;789;51.612;7.510;2023-03-16T06:38:17;5.50;1.00
1592;DHT22;789;51.612;7.510;2023-03-16T06:40:44;5.60;1.00
1592;DHT22;789;51.612;7.510;2023-03-16T06:43:14;5.60;1.00
1592;DHT22;789;51.612;7.510;2023-03-16T06:45:43;5.60;1.00
1592;DHT22;789;51.612;7.510;2023-03-16T06:48:10;5.60;1.00
1592;DHT22;789;51.612;7.510;2023-03-16T06:50:36;5.60;1.00
1592;DHT22;789;51.612;7.510;2023-03-16T06:53:03;5.70;1.00
1592;DHT22;789;51.612;7.510;2023-03-16T06:55:30;5.80;1.00
1592;DHT22;789;51.612;7.510;2023-03-16T06:57:57;5.90;1.00
1592;DHT22;789;51.612;7.510;2023-03-16T07:00:24;6.00;1.00
1592;DHT22;789;51.612;7.510;2023-03-16T07:02:52;6.10;1.00
1592;DHT22;789;51.612;7.510;2023-03-16T07:05:19;6.10;1.00
1592;DHT22;789;51.612;7.510;2023-03-16T07:07:46;6.20;1.00
1592;DHT22;789;51.612;7.510;2023-03-16T07:10:14;6.30;1.00
1592;DHT22;789;51.612;7.510;2023-03-16T07:12:43;6.30;1.00
1592;DHT22;789;51.612;7.510;2023-03-16T07:15:10;6.40;1.00
1592;DHT22;789;51.612;7.510;2023-03-16T07:17:39;6.50;1.00
1592;DHT22;789;51.612;7.510;2023-03-16T07:20:10;6.60;1.00
1592;DHT22;789;51.612;7.510;2023-03-16T07:22:37;6.80;1.00
1592;DHT22;789;51.612;7.510;2023-03-16T07:25:06;7.00;1.00
1592;DHT22;789;51.612;7.510;2023-03-16T07:27:33;7.10;1.00
1592;DHT22;789;51.612;7.510;2023-03-16T07:30:00;7.10;1.00
1592;DHT22;789;51.612;7.510;2023-03-16T07:32:29;7.10;1.00
1592;DHT22;789;51.612;7.510;2023-03-16T07:34:56;7.10;1.00
1592;DHT22;789;51.612;7.510;2023-03-16T07:37:25;7.10;1.00
1592;DHT22;789;51.612;7.510;2023-03-16T07:39:52;7.00;1.00
1592;DHT22;789;51.612;7.510;2023-03-16T07:42:18;7.00;1.00
1592;DHT22;789;51.612;7.510;2023-03-16T07:44:47;6.90;1.00
1592;DHT22;789;51.612;7.510;2023-03-16T07:47:14;6.90;1.00
1592;DHT22;789;51.612;7.510;2023-03-16T07:49:41;6.80;1.00
1592;DHT22;789;51.612;7.510;2023-03-16T07:52:09;6.80;1.00
1592;DHT22;789;51.612;7.510;2023-03-16T07:54:39;6.90;1.00
1592;DHT22;789;51.612;7.510;2023-03-16T07:57:06;6.90;1.00
1592;DHT22;789;51.612;7.510;2023-03-16T07:59:34;7.00;1.00
1592;DHT22;789;51.612;7.510;2023-03-16T08:02:00;7.00;1.00
1592;DHT22;789;51.612;7.510;2023-03-16T08:04:28;7.10;1.00
1592;DHT22;789;51.612;7.510;2023-03-16T08:06:55;7.20;1.00
1592;DHT22;789;51.612;7.510;2023-03-16T08:09:24;7.40;1.00
1592;DHT22;789;51.612;7.510;2023-03-16T08:11:53;7.70;1.00
1592;DHT22;789;51.612;7.510;2023-03-16T08:14:20;7.80;1.00
1592;DHT22;789;51.612;7.510;2023-03-16T08:16:46;7.90;1.00
1592;DHT22;789;51.612;7.510;2023-03-16T08:19:13;8.00;1.00
1592;DHT22;789;51.612;7.510;2023-03-16T08:21:42;8.10;1.00
1592;DHT22;789;51.612;7.510;2023-03-16T08:24:08;8.20;1.00
1592;DHT22;789;51.612;7.510;2023-03-16T08:26:35;8.40;1.00
1592;DHT22;789;51.612;7.510;2023-03-16T08:29:03;8.60;1.00
1592;DHT22;789;51.612;7.510;2023-03-16T08:31:30;8.70;1.00
1592;DHT22;789;51.612;7.510;2023-03-16T08:33:59;8.70;1.00
1592;DHT22;789;51.612;7.510;2023-03-16T08:36:28;8.80;1.00
1592;DHT22;789;51.612;7.510;2023-03-16T08:38:55;8.80;1.00
1592;DHT22;789;51.612;7.510;2023-03-16T08:41:22;9.00;1.00
1592;DHT22;789;51.612;7.510;2023-03-16T08:43:49;9.30;1.00
1592;DHT22;789;51.612;7.510;2023-03-16T08:46:18;9.60;1.00
1592;DHT22;789;51.612;7.510;2023-03-16T08:48:45;10.30;1.00
1592;DHT22;789;51.612;7.510;2023-03-16T08:51:12;10.80;1.00
1592;DHT22;789;51.612;7.510;2023-03-16T08:53:39;11.20;1.00
1592;DHT22;789;51.612;7.510;2023-03-16T08:56:07;11.30;1.00
1592;DHT22;789;51.612;7.510;2023-03-16T08:58:35;11.30;1.00
1592;DHT22;789;51.612;7.510;2023-03-16T09:01:04;11.10;1.00
1592;DHT22;789;51.612;7.510;2023-03-16T09:03:32;10.50;1.00
1592;DHT22;789;51.612;7.510;2023-03-16T09:06:00;10.00;1.00
1592;DHT22;789;51.612;7.510;2023-03-16T09:08:27;9.70;1.00
1592;DHT22;789;51.612;7.510;2023-03-16T09:10:58;9.40;1.00
1592;DHT22;789;51.612;7.510;2023-03-16T09:13:26;9.00;1.00
1592;DHT22;789;51.612;7.510;2023-03-16T09:15:53;8.80;1.00
1592;DHT22;789;51.612;7.510;2023-03-16T09:18:20;8.70;1.00
1592;DHT22;789;51.612;7.510;2023-03-16T09:20:49;8.50;1.00
1592;DHT22;789;51.612;7.510;2023-03-16T09:23:16;8.40;1.00
1592;DHT22;789;51.612;7.510;2023-03-16T09:25:43;8.40;1.00
1592;DHT22;789;51.612;7.510;2023-03-16T09:28:10;8.20;1.00
1592;DHT22;789;51.612;7.510;2023-03-16T09:30:38;8.30;1.00
1592;DHT22;789;51.612;7.510;2023-03-16T09:33:05;8.30;1.00
1592;DHT22;789;51.612;7.510;2023-03-16T09:35:32;8.30;1.00
1592;DHT22;789;51.612;7.510;2023-03-16T09:38:00;8.20;1.00
1592;DHT22;789;51.612;7.510;2023-03-16T09:40:29;8.20;1.00
1592;DHT22;789;51.612;7.510;2023-03-16T09:43:08;8.30;1.00
1592;DHT22;789;51.612;7.510;2023-03-16T09:45:42;8.20;1.00
1592;DHT22;789;51.612;7.510;2023-03-16T09:48:14;8.20;1.00
1592;DHT22;789;51.612;7.510;2023-03-16T09:50:43;8.20;1.00
1592;DHT22;789;51.612;7.510;2023-03-16T09:53:19;8.20;1.00
1592;DHT22;789;51.612;7.510;2023-03-16T09:55:52;8.20;1.00
1592;DHT22;789;51.612;7.510;2023-03-16T09:58:21;8.20;1.00
1592;DHT22;789;51.612;7.510;2023-03-16T10:00:53;8.30;1.00
1592;DHT22;789;51.612;7.510;2023-03-16T10:03:29;8.30;1.00
1592;DHT22;789;51.612;7.510;2023-03-16T10:06:00;8.40;1.00
1592;DHT22;789;51.612;7.510;2023-03-16T10:08:32;8.40;1.00
1592;DHT22;789;51.612;7.510;2023-03-16T10:11:27;8.40;1.00
1592;DHT22;789;51.612;7.510;2023-03-16T10:13:59;8.50;1.00
1592;DHT22;789;51.612;7.510;2023-03-16T10:16:33;8.60;1.00
1592;DHT22;789;51.612;7.510;2023-03-16T10:19:09;8.70;1.00
1592;DHT22;789;51.612;7.510;2023-03-16T10:21:39;8.70;1.00
1592;DHT22;789;51.612;7.510;2023-03-16T10:24:18;8.90;1.00
1592;DHT22;789;51.612;7.510;2023-03-16T10:26:53;8.90;1.00
1592;DHT22;789;51.612;7.510;2023-03-16T10:29:24;8.90;1.00
1592;DHT22;789;51.612;7.510;2023-03-16T10:31:54;8.90;1.00
1592;DHT22;789;51.612;7.510;2023-03-16T10:34:24;8.90;1.00
1592;DHT22;789;51.612;7.510;2023-03-16T10:36:52;8.90;1.00
1592;DHT22;789;51.612;7.510;2023-03-16T10:39:21;9.10;1.00
1592;DHT22;789;51.612;7.510;2023-03-16T10:41:54;9.20;1.00
1592;DHT22;789;51.612;7.510;2023-03-16T10:44:23;9.20;1.00
1592;DHT22;789;51.612;7.510;2023-03-16T10:46:59;9.30;1.00
1592;DHT22;789;51.612;7.510;2023-03-16T10:49:28;9.30;1.00
1592;DHT22;789;51.612;7.510;2023-03-16T10:51:57;9.50;1.00
1592;DHT22;789;51.612;7.510;2023-03-16T10:54:29;9.50;1.00
1592;DHT22;789;51.612;7.510;2023-03-16T10:56:57;9.60;1.00
1592;DHT22;789;51.612;7.510;2023-03-16T10:59:28;9.50;1.00
1592;DHT22;789;51.612;7.510;2023-03-16T11:01:56;9.50;1.00
1592;DHT22;789;51.612;7.510;2023-03-16T11:04:24;9.70;1.00
1592;DHT22;789;51.612;7.510;2023-03-16T11:06:53;9.90;1.00
1592;DHT22;789;51.612;7.510;2023-03-16T11:09:23;9.90;1.00
1592;DHT22;789;51.612;7.510;2023-03-16T11:11:52;10.00;1.00
1592;DHT22;789;51.612;7.510;2023-03-16T11:14:21;9.90;1.00
1592;DHT22;789;51.612;7.510;2023-03-16T11:16:52;9.90;1.00
1592;DHT22;789;51.612;7.510;2023-03-16T11:19:24;10.00;1.00
1592;DHT22;789;51.612;7.510;2023-03-16T11:21:57;10.00;1.00
1592;DHT22;789;51.612;7.510;2023-03-16T11:24:28;9.90;1.00
1592;DHT22;789;51.612;7.510;2023-03-16T11:27:00;9.90;1.00
1592;DHT22;789;51.612;7.510;2023-03-16T11:29:39;9.80;1.00
1592;DHT22;789;51.612;7.510;2023-03-16T11:32:11;9.80;1.00
1592;DHT22;789;51.612;7.510;2023-03-16T11:34:39;9.70;1.00
1592;DHT22;789;51.612;7.510;2023-03-16T11:37:13;9.60;1.00
1592;DHT22;789;51.612;7.510;2023-03-16T11:39:48;9.50;1.00
1592;DHT22;789;51.612;7.510;2023-03-16T11:42:27;9.60;1.00
1592;DHT22;789;51.612;7.510;2023-03-16T11:45:04;9.60;1.00
1592;DHT22;789;51.612;7.510;2023-03-16T11:48:03;9.70;1.00
1592;DHT22;789;51.612;7.510;2023-03-16T11:50:40;9.70;1.00
1592;DHT22;789;51.612;7.510;2023-03-16T11:53:16;9.80;1.00
1592;DHT22;789;51.612;7.510;2023-03-16T11:55:54;9.80;1.00
1592;DHT22;789;51.612;7.510;2023-03-16T11:58:39;9.80;1.00
1592;DHT22;789;51.612;7.510;2023-03-16T12:01:13;9.90;1.00
1592;DHT22;789;51.612;7.510;2023-03-16T12:03:51;10.10;1.00
1592;DHT22;789;51.612;7.510;2023-03-16T12:06:32;10.40;1.00
1592;DHT22;789;51.612;7.510;2023-03-16T12:09:31;10.70;1.00
1592;DHT22;789;51.612;7.510;2023-03-16T12:12:13;11.10;1.00
1592;DHT22;789;51.612;7.510;2023-03-16T12:14:47;11.40;1.00
1592;DHT22;789;51.612;7.510;2023-03-16T12:17:19;11.50;1.00
1592;DHT22;789;51.612;7.510;2023-03-16T12:19:51;11.70;1.00
1592;DHT22;789;51.612;7.510;2023-03-16T12:22:22;11.90;1.00
1592;DHT22;789;51.612;7.510;2023-03-16T12:24:53;12.20;1.00
1592;DHT22;789;51.612;7.510;2023-03-16T12:27:24;12.70;1.00
1592;DHT22;789;51.612;7.510;2023-03-16T12:30:23;12.90;1.00
1592;DHT22;789;51.612;7.510;2023-03-16T12:32:58;13.20;1.00
1592;DHT22;789;51.612;7.510;2023-03-16T12:35:35;13.60;1.00
1592;DHT22;789;51.612;7.510;2023-03-16T12:38:17;13.60;1.00
1592;DHT22;789;51.612;7.510;2023-03-16T12:40:48;13.30;1.00
1592;DHT22;789;51.612;7.510;2023-03-16T12:43:37;13.20;1.00
1592;DHT22;789;51.612;7.510;2023-03-16T12:46:10;13.20;1.00
1592;DHT22;789;51.612;7.510;2023-03-16T12:48:43;13.20;1.00
1592;DHT22;789;51.612;7.510;2023-03-16T12:51:10;13.30;1.00
1592;DHT22;789;51.612;7.510;2023-03-16T12:53:42;13.40;1.00
1592;DHT22;789;51.612;7.510;2023-03-16T12:56:11;13.40;1.00
1592;DHT22;789;51.612;7.510;2023-03-16T12:58:42;13.20;1.00
1592;DHT22;789;51.612;7.510;2023-03-16T13:01:14;13.10;1.00
1592;DHT22;789;51.612;7.510;2023-03-16T13:03:42;13.00;1.00
1592;DHT22;789;51.612;7.510;2023-03-16T13:06:17;12.80;1.00
1592;DHT22;789;51.612;7.510;2023-03-16T13:08:48;12.60;1.00
1592;DHT22;789;51.612;7.510;2023-03-16T13:11:16;12.50;1.00
1592;DHT22;789;51.612;7.510;2023-03-16T13:13:52;12.30;1.00
1592;DHT22;789;51.612;7.510;2023-03-16T13:16:26;12.30;1.00
1592;DHT22;789;51.612;7.510;2023-03-16T13:18:53;12.30;1.00
1592;DHT22;789;51.612;7.510;2023-03-16T13:21:21;12.20;1.00
1592;DHT22;789;51.612;7.510;2023-03-16T13:24:12;12.10;1.00
1592;DHT22;789;51.612;7.510;2023-03-16T13:26:40;12.20;1.00
1592;DHT22;789;51.612;7.510;2023-03-16T13:29:30;12.10;1.00
1592;DHT22;789;51.612;7.510;2023-03-16T13:32:01;12.00;1.00
1592;DHT22;789;51.612;7.510;2023-03-16T13:34:29;11.90;1.00
1592;DHT22;789;51.612;7.510;2023-03-16T13:36:58;11.90;1.00
1592;DHT22;789;51.612;7.510;2023-03-16T13:39:27;12.00;1.00
1592;DHT22;789;51.612;7.510;2023-03-16T13:41:56;12.00;1.00
1592;DHT22;789;51.612;7.510;2023-03-16T13:44:24;12.10;1.00
1592;DHT22;789;51.612;7.510;2023-03-16T13:46:51;12.20;1.00
1592;DHT22;789;51.612;7.510;2023-03-16T13:49:20;12.20;1.00
1592;DHT22;789;51.612;7.510;2023-03-16T13:51:47;12.30;1.00
1592;DHT22;789;51.612;7.510;2023-03-16T13:54:23;12.40;1.00
1592;DHT22;789;51.612;7.510;2023-03-16T13:56:51;12.50;1.00
1592;DHT22;789;51.612;7.510;2023-03-16T13:59:19;12.60;1.00
1592;DHT22;789;51.612;7.510;2023-03-16T14:01:47;12.60;1.00
1592;DHT22;789;51.612;7.510;2023-03-16T14:04:24;12.50;1.00
1592;DHT22;789;51.612;7.510;2023-03-16T14:06:54;12.40;1.00
1592;DHT22;789;51.612;7.510;2023-03-16T14:09:25;12.30;1.00
1592;DHT22;789;51.612;7.510;2023-03-16T14:11:53;12.20;1.00
1592;DHT22;789;51.612;7.510;2023-03-16T14:14:24;12.10;1.00
1592;DHT22;789;51.612;7.510;2023-03-16T14:16:52;12.10;1.00
1592;DHT22;789;51.612;7.510;2023-03-16T14:19:23;12.00;1.00
1592;DHT22;789;51.612;7.510;2023-03-16T14:22:00;12.00;1.00
1592;DHT22;789;51.612;7.510;2023-03-16T14:24:30;12.00;1.00
1592;DHT22;789;51.612;7.510;2023-03-16T14:27:14;12.00;1.00
1592;DHT22;789;51.612;7.510;2023-03-16T14:29:43;12.10;1.00
1592;DHT22;789;51.612;7.510;2023-03-16T14:32:20;12.10;1.00
1592;DHT22;789;51.612;7.510;2023-03-16T14:35:01;12.20;1.00
1592;DHT22;789;51.612;7.510;2023-03-16T14:37:36;12.40;1.00
1592;DHT22;789;51.612;7.510;2023-03-16T14:40:05;12.60;1.00
1592;DHT22;789;51.612;7.510;2023-03-16T14:42:33;12.80;1.00
1592;DHT22;789;51.612;7.510;2023-03-16T14:45:02;12.90;1.00
1592;DHT22;789;51.612;7.510;2023-03-16T14:47:40;12.90;1.00
1592;DHT22;789;51.612;7.510;2023-03-16T14:50:14;12.90;1.00
1592;DHT22;789;51.612;7.510;2023-03-16T14:52:43;12.80;1.00
1592;DHT22;789;51.612;7.510;2023-03-16T14:55:13;12.70;1.00
1592;DHT22;789;51.612;7.510;2023-03-16T14:57:41;12.60;1.00
1592;DHT22;789;51.612;7.510;2023-03-16T15:00:11;12.60;1.00
1592;DHT22;789;51.612;7.510;2023-03-16T15:02:41;12.60;1.00
1592;DHT22;789;51.612;7.510;2023-03-16T15:05:18;12.60;1.00
1592;DHT22;789;51.612;7.510;2023-03-16T15:07:49;12.60;1.00
1592;DHT22;789;51.612;7.510;2023-03-16T15:10:21;12.60;1.00
1592;DHT22;789;51.612;7.510;2023-03-16T15:12:50;12.70;1.00
1592;DHT22;789;51.612;7.510;2023-03-16T15:15:21;12.70;1.00
1592;DHT22;789;51.612;7.510;2023-03-16T15:17:50;12.70;1.00
1592;DHT22;789;51.612;7.510;2023-03-16T15:20:20;12.70;1.00
1592;DHT22;789;51.612;7.510;2023-03-16T15:22:51;12.60;1.00
1592;DHT22;789;51.612;7.510;2023-03-16T15:25:27;12.60;1.00
1592;DHT22;789;51.612;7.510;2023-03-16T15:28:00;12.60;1.00
1592;DHT22;789;51.612;7.510;2023-03-16T15:30:26;12.60;1.00
1592;DHT22;789;51.612;7.510;2023-03-16T15:32:55;12.60;1.00
1592;DHT22;789;51.612;7.510;2023-03-16T15:35:23;12.60;1.00
1592;DHT22;789;51.612;7.510;2023-03-16T15:37:50;12.60;1.00
1592;DHT22;789;51.612;7.510;2023-03-16T15:40:19;12.60;1.00
1592;DHT22;789;51.612;7.510;2023-03-16T15:42:46;12.60;1.00
1592;DHT22;789;51.612;7.510;2023-03-16T15:45:15;12.60;1.00
1592;DHT22;789;51.612;7.510;2023-03-16T15:47:43;12.60;1.00
1592;DHT22;789;51.612;7.510;2023-03-16T15:50:10;12.50;1.00
1592;DHT22;789;51.612;7.510;2023-03-16T15:52:40;12.50;1.00
1592;DHT22;789;51.612;7.510;2023-03-16T15:55:14;12.50;1.00
1592;DHT22;789;51.612;7.510;2023-03-16T15:57:41;12.50;1.00
1592;DHT22;789;51.612;7.510;2023-03-16T16:00:20;12.40;1.00
1592;DHT22;789;51.612;7.510;2023-03-16T16:02:49;12.30;1.00
1592;DHT22;789;51.612;7.510;2023-03-16T16:05:15;12.30;1.00
1592;DHT22;789;51.612;7.510;2023-03-16T16:07:44;12.40;1.00
1592;DHT22;789;51.612;7.510;2023-03-16T16:10:12;12.40;1.00
1592;DHT22;789;51.612;7.510;2023-03-16T16:12:38;12.30;1.00
1592;DHT22;789;51.612;7.510;2023-03-16T16:15:17;12.30;1.00
1592;DHT22;789;51.612;7.510;2023-03-16T16:17:46;12.30;1.00
1592;DHT22;789;51.612;7.510;2023-03-16T16:20:17;12.30;1.00
1592;DHT22;789;51.612;7.510;2023-03-16T16:22:47;12.30;1.00
1592;DHT22;789;51.612;7.510;2023-03-16T16:25:15;12.30;1.00
1592;DHT22;789;51.612;7.510;2023-03-16T16:27:43;12.30;1.00
1592;DHT22;789;51.612;7.510;2023-03-16T16:30:20;12.30;1.00
1592;DHT22;789;51.612;7.510;2023-03-16T16:33:23;12.30;1.00
1592;DHT22;789;51.612;7.510;2023-03-16T16:35:50;12.20;1.00
1592;DHT22;789;51.612;7.510;2023-03-16T16:38:19;12.20;1.00
1592;DHT22;789;51.612;7.510;2023-03-16T16:40:49;12.20;1.00
1592;DHT22;789;51.612;7.510;2023-03-16T16:43:25;12.20;1.00
1592;DHT22;789;51.612;7.510;2023-03-16T16:45:55;12.20;1.00
1592;DHT22;789;51.612;7.510;2023-03-16T16:48:30;12.10;1.00
1592;DHT22;789;51.612;7.510;2023-03-16T16:50:58;12.10;1.00
1592;DHT22;789;51.612;7.510;2023-03-16T16:53:27;12.10;1.00
1592;DHT22;789;51.612;7.510;2023-03-16T16:55:54;12.10;1.00
1592;DHT22;789;51.612;7.510;2023-03-16T16:58:22;12.10;1.00
1592;DHT22;789;51.612;7.510;2023-03-16T17:00:51;12.10;1.00
1592;DHT22;789;51.612;7.510;2023-03-16T17:03:22;12.10;1.00